Terminal Aerodrome Forecast
Issued by NWS Lake Charles, LA

Home | Current Version | Previous Version | Text Only | Print | Product List | Glossary On
Versions: 1 2 3 4 5 6 7 8 9 10 11 12 13 14 15 16 17 18 19 20 21 22 23 24 25 26 27 28 29 30 31
000
FTUS44 KLCH 230500
TAFLFT
TAF
KLFT 230525Z 2306/2406 19005KT P6SM VCSH FEW004 BKN040
     FM230900 VRB03KT 4SM BR VCSH BKN008
      TEMPO 2309/2313 1/2SM FG OVC002
     FM231500 19013KT 4SM BR VCTS BKN008CB
     FM231800 22012KT P6SM VCTS BKN015CB
     FM240100 32017G24KT P6SM OVC015=

USA.gov is the U.S. government's official web portal to all federal, state and local government web resources and services.